Time;durP1;ratioP1;P1;durP2;ratioP2;P2;SDS_P1;SDS_P2;PMS_P1;PMS_P2;Temp;Humidity;BMP_temperature;BMP_pressure;BME280_temperature;BME280_humidity;BME280_pressure;Samples;Min_cycle;Max_cycle;Signal;HPM_P1;HPM_P2
2021/04/25 00:00:10;;;;;;;86.00;40.58;;;;;;;4.30;65.65;97476.09;1750088;80;27506;-81
2021/04/25 00:02:39;;;;;;;95.12;42.33;;;;;;;4.25;65.75;97476.25;1750009;80;25350;-82
2021/04/25 00:05:09;;;;;;;88.15;41.42;;;;;;;4.19;65.85;97478.28;1750145;80;25468;-81
2021/04/25 00:07:36;;;;;;;88.27;41.83;;;;;;;4.18;66.00;97477.95;1750073;80;25929;-82
2021/04/25 00:10:07;;;;;;;95.12;43.40;;;;;;;4.16;65.96;97482.62;1750127;80;25700;-82
2021/04/25 00:12:34;;;;;;;84.50;41.58;;;;;;;4.17;66.10;97481.62;1771276;80;27597;-81
2021/04/25 00:15:02;;;;;;;75.12;38.42;;;;;;;4.12;66.20;97481.28;1750049;80;25798;-81
2021/04/25 00:17:30;;;;;;;87.30;40.00;;;;;;;4.11;66.25;97475.60;1750156;80;25840;-81
2021/04/25 00:19:57;;;;;;;83.35;40.48;;;;;;;4.09;66.31;97481.14;1750173;80;25720;-82
2021/04/25 00:22:24;;;;;;;86.17;41.02;;;;;;;4.08;66.31;97485.31;1750102;80;25822;-82
2021/04/25 00:24:52;;;;;;;85.55;41.83;;;;;;;4.05;66.35;97480.30;1750155;80;27532;-82
2021/04/25 00:27:19;;;;;;;86.22;41.28;;;;;;;4.01;66.40;97481.13;1750020;80;26417;-81
2021/04/25 00:29:46;;;;;;;78.35;41.28;;;;;;;4.02;66.41;97481.46;1750128;80;25699;-82
2021/04/25 00:32:14;;;;;;;81.75;41.08;;;;;;;4.03;66.50;97479.63;1750048;80;25744;-82
2021/04/25 00:34:41;;;;;;;81.97;40.98;;;;;;;3.99;66.56;97474.61;1750261;80;25735;-82
2021/04/25 00:37:08;;;;;;;81.72;40.50;;;;;;;3.98;66.64;97470.27;1750141;80;27528;-81
2021/04/25 00:39:36;;;;;;;84.55;41.88;;;;;;;3.95;66.62;97469.30;1750015;80;25740;-81
2021/04/25 00:42:04;;;;;;;87.12;41.90;;;;;;;3.91;66.70;97469.29;1750081;80;25712;-82
2021/04/25 00:44:31;;;;;;;86.28;40.40;;;;;;;3.90;66.61;97474.30;1750126;80;26479;-81
2021/04/25 00:46:58;;;;;;;88.95;42.48;;;;;;;3.88;66.75;97466.95;1750173;80;25856;-81
2021/04/25 00:49:25;;;;;;;88.27;39.70;;;;;;;3.81;66.79;97463.30;1750073;80;27488;-81
2021/04/25 00:51:53;;;;;;;76.20;38.92;;;;;;;3.80;66.94;97465.63;1750094;80;26379;-82
2021/04/25 00:54:20;;;;;;;78.07;36.13;;;;;;;3.82;67.12;97470.30;1750095;80;25898;-81
2021/04/25 00:56:47;;;;;;;75.08;36.42;;;;;;;3.83;67.23;97470.64;1750052;80;25660;-82
2021/04/25 00:59:15;;;;;;;69.85;36.20;;;;;;;3.81;67.19;97468.63;1750239;80;25688;-79
2021/04/25 01:01:43;;;;;;;73.75;35.78;;;;;;;3.78;67.25;97460.95;1750207;80;27597;-79
2021/04/25 01:04:10;;;;;;;72.45;38.08;;;;;;;3.70;67.29;97464.13;1750200;80;25783;-79
2021/04/25 01:06:37;;;;;;;73.17;36.15;;;;;;;3.71;67.41;97465.30;1750207;80;25867;-79
2021/04/25 01:09:06;;;;;;;77.40;37.33;;;;;;;3.75;67.46;97467.95;1750247;80;26346;-79
2021/04/25 01:11:33;;;;;;;68.02;36.15;;;;;;;3.74;67.43;97460.97;1750278;80;25731;-79
2021/04/25 01:14:00;;;;;;;78.28;36.83;;;;;;;3.72;67.44;97464.30;1750238;80;27564;-79
2021/04/25 01:16:28;;;;;;;75.17;36.80;;;;;;;3.72;67.52;97457.63;1750151;80;25790;-79
2021/04/25 01:18:56;;;;;;;76.12;36.75;;;;;;;3.61;67.44;97452.63;1750314;80;25831;-80
2021/04/25 01:21:24;;;;;;;69.27;34.48;;;;;;;3.61;67.55;97459.30;1750356;80;26269;-79
2021/04/25 01:23:51;;;;;;;74.42;34.27;;;;;;;3.59;67.63;97458.13;1750374;80;25821;-79
2021/04/25 01:26:18;;;;;;;82.62;38.65;;;;;;;3.55;67.65;97461.28;1750326;80;28514;-79
2021/04/25 01:28:45;;;;;;;100.67;45.03;;;;;;;3.53;67.72;97457.94;1750119;80;26173;-79
2021/04/25 01:31:13;;;;;;;75.40;37.75;;;;;;;3.54;67.87;97454.27;1750248;80;25712;-79
2021/04/25 01:33:40;;;;;;;65.65;34.53;;;;;;;3.54;67.89;97456.94;1750244;80;25819;-79
2021/04/25 01:36:08;;;;;;;78.25;36.68;;;;;;;3.55;67.89;97457.28;1750215;80;25704;-79
2021/04/25 01:38:36;;;;;;;78.22;37.50;;;;;;;3.53;67.87;97457.94;1750204;80;27574;-79
2021/04/25 01:41:03;;;;;;;72.58;34.88;;;;;;;3.45;67.91;97457.95;1750300;80;26205;-79
2021/04/25 01:43:31;;;;;;;70.10;35.00;;;;;;;3.44;67.96;97457.61;1750305;80;25778;-79
2021/04/25 01:45:58;;;;;;;67.87;33.40;;;;;;;3.46;68.05;97462.28;1750217;80;26502;-79
2021/04/25 01:48:25;;;;;;;76.72;34.05;;;;;;;3.45;67.93;97461.95;1750302;80;25884;-79
2021/04/25 01:50:53;;;;;;;74.82;33.53;;;;;;;3.45;67.98;97455.28;1750210;80;27505;-79
2021/04/25 01:53:20;;;;;;;77.20;34.35;;;;;;;3.36;67.96;97446.94;1757032;80;25754;-79
2021/04/25 01:55:48;;;;;;;82.67;37.30;;;;;;;3.36;68.18;97453.61;1750105;80;25873;-79
2021/04/25 01:58:15;;;;;;;69.75;31.23;;;;;;;3.36;68.31;97453.61;1750156;80;25783;-79
2021/04/25 02:00:46;;;;;;;71.67;33.05;;;;;;;3.30;68.30;97448.91;1750211;80;25790;-79
2021/04/25 02:03:15;;;;;;;68.90;34.18;;;;;;;3.28;68.27;97452.24;1750327;80;28531;-79
2021/04/25 02:05:43;;;;;;;69.90;33.85;;;;;;;3.29;68.31;97448.58;1750206;80;26127;-79
2021/04/25 02:08:13;;;;;;;75.62;35.70;;;;;;;3.28;68.38;97457.58;1750355;80;25696;-79
2021/04/25 02:10:42;;;;;;;90.92;38.78;;;;;;;3.29;68.51;97456.58;1750126;80;26463;-79
2021/04/25 02:13:10;;;;;;;74.27;34.48;;;;;;;3.29;68.66;97455.25;1750241;80;25840;-79
2021/04/25 02:15:38;;;;;;;71.97;35.63;;;;;;;3.24;68.69;97447.75;1750136;80;27573;-79
2021/04/25 02:18:06;;;;;;;67.25;34.55;;;;;;;3.19;68.57;97444.23;1750084;80;25781;-78
2021/04/25 02:20:34;;;;;;;70.45;34.25;;;;;;;3.22;68.65;97442.58;1749596;80;25783;-79
2021/04/25 02:23:01;;;;;;;66.05;34.33;;;;;;;3.17;68.69;97440.89;1750129;80;26423;-78
2021/04/25 02:25:28;;;;;;;75.97;36.00;;;;;;;3.14;68.70;97439.87;1750097;80;25835;-78
2021/04/25 02:27:57;;;;;;;84.10;38.92;;;;;;;3.16;68.70;97439.22;1750255;80;27498;-79
2021/04/25 02:30:31;;;;;;;91.85;40.98;;;;;;;3.23;68.73;97433.58;1750124;80;25456;-79
2021/04/25 02:32:59;;;;;;;109.05;42.50;;;;;;;3.22;68.78;97431.91;1750322;80;25891;-81
2021/04/25 02:35:29;;;;;;;101.50;40.12;;;;;;;3.20;68.90;97428.56;1750180;80;26088;-81
2021/04/25 02:37:58;;;;;;;79.80;36.68;;;;;;;3.04;68.81;97431.20;1750111;80;25904;-81
2021/04/25 02:40:30;;;;;;;72.42;36.38;;;;;;;2.98;68.92;97429.70;1750230;80;27654;-81
2021/04/25 02:42:59;;;;;;;68.63;33.27;;;;;;;2.95;69.02;97429.52;1750360;80;26368;-82
2021/04/25 02:45:28;;;;;;;67.30;33.02;;;;;;;2.95;68.91;97433.52;1750178;80;25819;-81
2021/04/25 02:48:03;;;;;;;63.42;29.85;;;;;;;2.96;68.77;97434.35;1750212;80;26426;-81
2021/04/25 02:50:35;;;;;;;96.22;40.73;;;;;;;2.83;68.58;97438.81;1750263;80;25775;-81
2021/04/25 02:53:03;;;;;;;153.15;52.90;;;;;;;2.71;68.68;97432.11;1749100;80;27523;-81
2021/04/25 02:55:31;;;;;;;163.77;56.98;;;;;;;2.62;68.76;97431.27;1750153;80;25772;-81
2021/04/25 02:57:58;;;;;;;98.95;41.58;;;;;;;2.51;68.77;97435.55;1744887;80;25710;-81
2021/04/25 03:00:28;;;;;;;77.67;33.92;;;;;;;2.44;69.00;97435.34;1730901;81;25861;-81
2021/04/25 03:02:58;;;;;;;66.37;31.65;;;;;;;2.44;69.06;97444.66;1748364;81;25766;-81
2021/04/25 03:05:26;;;;;;;54.35;27.35;;;;;;;2.40;69.01;97448.66;1755293;81;27506;-81
2021/04/25 03:07:55;;;;;;;56.18;29.45;;;;;;;2.33;69.06;97441.44;1746411;81;26121;-81
2021/04/25 03:10:24;;;;;;;51.37;26.75;;;;;;;2.34;69.20;97442.62;1761149;79;25710;-81
2021/04/25 03:12:52;;;;;;;53.42;27.60;;;;;;;2.37;69.21;97435.65;1747188;81;26474;-82
2021/04/25 03:15:21;;;;;;;53.13;28.38;;;;;;;2.37;69.19;97430.32;1733197;81;25810;-81
2021/04/25 03:17:50;;;;;;;58.70;28.40;;;;;;;2.33;69.26;97426.30;1754328;79;28543;-81
2021/04/25 03:20:21;;;;;;;51.18;27.60;;;;;;;2.23;69.24;97423.42;1734905;81;25758;-81
2021/04/25 03:22:48;;;;;;;47.17;25.00;;;;;;;2.14;69.37;97426.55;1761271;81;25764;-81
2021/04/25 03:25:16;;;;;;;53.42;28.47;;;;;;;2.01;69.36;97415.48;1741003;81;25793;-81
2021/04/25 03:27:43;;;;;;;63.17;30.62;;;;;;;1.93;69.55;97426.09;1753699;81;25955;-81
2021/04/25 03:30:14;;;;;;;66.82;34.03;;;;;;;1.93;69.70;97424.27;1730859;81;27563;-81
2021/04/25 03:32:42;;;;;;;67.03;32.85;;;;;;;1.84;69.84;97423.02;1731017;81;26372;-81
2021/04/25 03:35:12;;;;;;;64.05;30.15;;;;;;;1.75;70.07;97423.47;1736293;81;25352;-81
2021/04/25 03:37:41;;;;;;;61.80;30.75;;;;;;;1.71;70.08;97417.61;1761216;80;26462;-81
2021/04/25 03:40:12;;;;;;;61.35;30.15;;;;;;;1.71;70.14;97416.28;1761159;81;25851;-81
2021/04/25 03:42:39;;;;;;;62.55;31.40;;;;;;;1.78;70.19;97414.69;1747204;81;28536;-81
2021/04/25 03:45:13;;;;;;;57.53;30.20;;;;;;;1.85;70.17;97418.03;1754162;81;26136;-81
2021/04/25 03:47:39;;;;;;;49.58;26.85;;;;;;;1.87;70.15;97422.71;1761331;79;28894;-82
2021/04/25 03:50:08;;;;;;;41.48;23.67;;;;;;;1.90;70.16;97418.41;1760667;79;25739;-81
2021/04/25 03:52:35;;;;;;;63.40;28.62;;;;;;;1.91;70.09;97420.09;1750019;81;25754;-82
2021/04/25 03:55:05;;;;;;;58.20;28.52;;;;;;;1.95;70.03;97424.09;1749654;81;27566;-81
2021/04/25 03:57:32;;;;;;;59.98;29.82;;;;;;;1.89;69.83;97420.23;1760903;81;25750;-81
2021/04/25 04:00:00;;;;;;;60.58;30.10;;;;;;;1.80;69.85;97426.02;1750764;79;25909;-81
2021/04/25 04:02:28;;;;;;;58.85;28.85;;;;;;;1.77;69.98;97423.66;1731835;81;25861;-81
2021/04/25 04:04:55;;;;;;;52.98;28.45;;;;;;;1.73;70.07;97420.95;1730998;81;25907;-81
2021/04/25 04:07:22;;;;;;;56.00;29.18;;;;;;;1.76;70.17;97417.99;1730863;81;27562;-81
2021/04/25 04:09:50;;;;;;;54.90;28.45;;;;;;;1.78;70.16;97425.33;1730765;81;25957;-81
2021/04/25 04:12:17;;;;;;;65.05;29.40;;;;;;;1.78;70.11;97421.34;1732401;81;25935;-81
2021/04/25 04:14:44;;;;;;;63.33;30.75;;;;;;;1.76;70.10;97425.98;1754798;81;25719;-81
2021/04/25 04:17:11;;;;;;;68.62;31.97;;;;;;;1.77;70.18;97428.14;1734992;81;25998;-81
2021/04/25 04:19:39;;;;;;;65.78;31.82;;;;;;;1.74;70.19;97422.63;1730859;81;27571;-81
2021/04/25 04:22:06;;;;;;;62.78;31.70;;;;;;;1.76;70.26;97420.66;1748943;81;25321;-81
2021/04/25 04:24:33;;;;;;;65.78;31.80;;;;;;;1.78;70.30;97422.67;1755041;81;25802;-81
2021/04/25 04:27:01;;;;;;;56.18;29.60;;;;;;;1.81;70.29;97419.67;1746459;81;25876;-81
2021/04/25 04:29:29;;;;;;;59.60;31.00;;;;;;;1.85;70.35;97426.02;1732356;80;26003;-81
2021/04/25 04:31:57;;;;;;;58.05;28.52;;;;;;;1.87;70.39;97430.20;1747953;81;28140;-81
2021/04/25 04:34:24;;;;;;;62.83;29.27;;;;;;;1.90;70.39;97423.73;1755748;81;25861;-81
2021/04/25 04:36:51;;;;;;;52.00;28.55;;;;;;;1.93;70.44;97428.27;1745764;81;26290;-81
2021/04/25 04:39:19;;;;;;;61.42;28.38;;;;;;;1.98;70.50;97427.28;1759617;81;25569;-81
2021/04/25 04:41:46;;;;;;;56.90;28.95;;;;;;;2.06;70.60;97438.45;1751069;81;25789;-81
2021/04/25 04:44:14;;;;;;;58.17;29.40;;;;;;;2.10;70.51;97428.67;1748493;81;27501;-81
2021/04/25 04:46:41;;;;;;;54.05;30.08;;;;;;;2.15;70.49;97430.88;1740876;81;25768;-81
2021/04/25 04:49:08;;;;;;;62.70;32.85;;;;;;;2.18;70.39;97432.70;1750117;80;25818;-82
2021/04/25 04:51:36;;;;;;;59.73;33.28;;;;;;;2.22;70.48;97434.56;1739126;81;25983;-82
2021/04/25 04:54:04;;;;;;;62.98;32.95;;;;;;;2.28;70.42;97431.78;1744285;81;25302;-81
2021/04/25 04:56:31;;;;;;;67.05;36.58;;;;;;;2.33;70.33;97437.45;1739986;81;28125;-81
2021/04/25 04:58:58;;;;;;;68.07;37.30;;;;;;;2.37;70.30;97435.65;1745614;79;25769;-81
2021/04/25 05:01:25;;;;;;;64.85;34.48;;;;;;;2.42;70.42;97427.16;1739925;81;25781;-82
2021/04/25 05:03:53;;;;;;;59.98;32.80;;;;;;;2.45;70.55;97427.69;1761353;81;25735;-81
2021/04/25 05:06:20;;;;;;;67.00;33.15;;;;;;;2.51;70.55;97424.89;1760877;81;25826;-81
2021/04/25 05:08:47;;;;;;;54.88;31.35;;;;;;;2.57;70.67;97430.06;1731048;81;28396;-81
2021/04/25 05:11:15;;;;;;;62.80;34.05;;;;;;;2.59;70.74;97422.74;1750396;81;25687;-81
2021/04/25 05:13:42;;;;;;;64.17;33.42;;;;;;;2.68;70.78;97431.09;1753701;79;25759;-82
2021/04/25 05:16:09;;;;;;;61.65;31.73;;;;;;;2.80;70.65;97433.80;1730955;81;26511;-81
2021/04/25 05:18:39;;;;;;;53.15;29.95;;;;;;;2.91;70.60;97434.83;1757417;81;25545;-81
2021/04/25 05:21:06;;;;;;;52.88;32.08;;;;;;;3.01;70.40;97430.21;1761333;81;27491;-81
2021/04/25 05:23:33;;;;;;;52.43;29.27;;;;;;;3.08;70.40;97424.55;1739790;81;26240;-81
2021/04/25 05:26:01;;;;;;;59.48;30.77;;;;;;;3.15;70.50;97424.71;1761296;81;25683;-82
2021/04/25 05:28:29;;;;;;;52.25;30.60;;;;;;;3.19;70.39;97433.56;1755431;80;25862;-82
2021/04/25 05:31:00;;;;;;;54.95;30.48;;;;;;;3.25;70.47;97428.92;1756571;81;25458;-82
2021/04/25 05:33:29;;;;;;;55.20;28.90;;;;;;;3.34;70.29;97431.59;1745819;81;27516;-81
2021/04/25 05:35:57;;;;;;;57.78;29.95;;;;;;;3.35;70.05;97426.09;1739872;81;26392;-82
2021/04/25 05:38:24;;;;;;;49.40;27.70;;;;;;;3.39;70.05;97426.56;1761332;81;25728;-82
2021/04/25 05:40:52;;;;;;;51.95;27.32;;;;;;;3.46;70.11;97419.09;1739302;81;25861;-82
2021/04/25 05:43:19;;;;;;;50.52;27.48;;;;;;;3.52;70.23;97417.57;1739479;81;25713;-82
2021/04/25 05:45:46;;;;;;;55.63;27.93;;;;;;;3.57;70.24;97412.08;1750949;81;28554;-82
2021/04/25 05:48:14;;;;;;;55.30;28.95;;;;;;;3.67;70.11;97409.23;1756502;81;26204;-82
2021/04/25 05:50:41;;;;;;;51.80;27.27;;;;;;;3.80;70.01;97410.05;1736339;81;25693;-82
2021/04/25 05:53:09;;;;;;;46.23;27.07;;;;;;;3.88;69.71;97401.52;1754658;81;25711;-82
2021/04/25 05:55:36;;;;;;;56.40;28.50;;;;;;;3.93;69.54;97406.37;1743902;81;25827;-82
2021/04/25 05:58:04;;;;;;;48.85;27.98;;;;;;;3.99;69.45;97403.83;1736731;81;27499;-82
2021/04/25 06:00:33;;;;;;;56.68;28.17;;;;;;;4.09;69.46;97405.51;1765527;80;25757;-82
2021/04/25 06:03:00;;;;;;;53.50;26.85;;;;;;;4.20;69.23;97407.81;1750263;80;25759;-82
2021/04/25 06:05:27;;;;;;;50.98;27.30;;;;;;;4.31;69.25;97411.45;1750139;80;25754;-82
2021/04/25 06:07:55;;;;;;;55.50;27.73;;;;;;;4.42;69.20;97402.23;1750286;80;26691;-82
2021/04/25 06:10:22;;;;;;;47.48;27.60;;;;;;;4.53;68.94;97406.69;1750193;80;28443;-82
2021/04/25 06:12:51;;;;;;;53.42;27.58;;;;;;;4.60;68.79;97400.13;1750194;80;25812;-82
2021/04/25 06:15:21;;;;;;;53.75;27.77;;;;;;;4.69;68.77;97408.47;1750213;80;25791;-82
2021/04/25 06:17:49;;;;;;;48.75;27.22;;;;;;;4.80;68.72;97403.23;1750231;80;26305;-82
2021/04/25 06:20:18;;;;;;;48.38;27.10;;;;;;;4.93;68.59;97398.98;1750232;80;25836;-81
2021/04/25 06:22:47;;;;;;;53.60;26.12;;;;;;;5.05;68.27;97397.56;1750293;80;27552;-82
2021/04/25 06:25:16;;;;;;;52.10;27.20;;;;;;;5.18;68.04;97401.00;1750116;80;25804;-82
2021/04/25 06:27:44;;;;;;;51.50;27.17;;;;;;;5.31;67.74;97397.20;1750243;80;25809;-82
2021/04/25 06:30:14;;;;;;;56.50;29.45;;;;;;;5.40;67.37;97389.45;1750204;80;25516;-82
2021/04/25 06:32:42;;;;;;;55.48;28.23;;;;;;;5.48;67.43;97393.90;1750181;80;25916;-82
2021/04/25 06:35:11;;;;;;;54.73;28.42;;;;;;;5.62;67.23;97397.64;1750145;80;27600;-82
2021/04/25 06:37:39;;;;;;;59.23;28.65;;;;;;;5.76;67.18;97389.65;1750071;80;25851;-82
2021/04/25 06:40:10;;;;;;;53.70;28.30;;;;;;;5.93;66.95;97391.68;1750191;80;25855;-82
2021/04/25 06:42:39;;;;;;;49.83;27.10;;;;;;;6.08;66.64;97391.20;1750222;80;25722;-82
2021/04/25 06:45:19;;;;;;;53.30;27.52;;;;;;;6.22;66.46;97397.59;1750250;80;25815;-82
2021/04/25 06:47:48;;;;;;;54.60;28.57;;;;;;;6.32;66.27;97386.08;1750113;80;27485;-82
2021/04/25 06:50:17;;;;;;;54.20;27.75;;;;;;;6.45;66.02;97384.09;1749652;80;25823;-82
2021/04/25 06:52:47;;;;;;;49.45;28.38;;;;;;;6.59;66.13;97385.93;1750195;80;25709;-82
2021/04/25 06:55:19;;;;;;;52.85;27.73;;;;;;;6.72;66.08;97385.27;1750305;80;25753;-82
2021/04/25 06:57:48;;;;;;;51.23;27.73;;;;;;;6.90;65.59;97394.23;1750456;80;25790;-82
2021/04/25 07:00:18;;;;;;;48.65;27.45;;;;;;;7.02;65.07;97386.02;1750234;80;26779;-82
2021/04/25 07:02:45;;;;;;;56.08;27.55;;;;;;;7.16;64.84;97382.46;1750049;80;26137;-82
2021/04/25 07:05:14;;;;;;;48.73;24.92;;;;;;;7.29;64.60;97390.66;1750075;80;26300;-82
2021/04/25 07:07:42;;;;;;;40.00;20.85;;;;;;;7.40;64.30;97387.46;1750211;80;25779;-81
2021/04/25 07:10:11;;;;;;;43.42;22.02;;;;;;;7.48;63.77;97387.35;1750121;80;25763;-82
2021/04/25 07:12:38;;;;;;;41.65;22.10;;;;;;;7.61;63.72;97385.81;1750175;80;27567;-82
2021/04/25 07:15:08;;;;;;;39.75;20.57;;;;;;;7.79;63.62;97383.47;1750054;80;26140;-82
2021/04/25 07:17:35;;;;;;;38.38;20.35;;;;;;;7.86;63.27;97374.42;1750177;80;25765;-82
2021/04/25 07:20:08;;;;;;;31.87;19.00;;;;;;;7.94;63.46;97374.30;1750147;80;25759;-82
2021/04/25 07:22:35;;;;;;;;;;;;;;;8.03;63.00;97374.98;1763228;80;25778;-82
2021/04/25 07:25:04;;;;;;;34.60;18.98;;;;;;;8.14;62.49;97378.47;1754366;80;27598;-82
2021/04/25 07:27:31;;;;;;;33.40;16.82;;;;;;;8.14;62.42;97374.43;1750073;80;25679;-82
2021/04/25 07:29:59;;;;;;;35.20;17.37;;;;;;;8.12;61.98;97373.80;1750167;80;26432;-82
2021/04/25 07:32:27;;;;;;;33.35;17.52;;;;;;;8.14;62.04;97379.81;1750147;80;26492;-81
2021/04/25 07:34:55;;;;;;;28.20;16.17;;;;;;;8.17;61.71;97383.45;1750280;80;25835;-82
2021/04/25 07:37:22;;;;;;;32.60;18.17;;;;;;;8.18;61.34;97378.40;1750093;80;27579;-82
2021/04/25 07:39:50;;;;;;;36.73;18.10;;;;;;;8.15;61.29;97373.92;1750153;80;25323;-82
2021/04/25 07:42:18;;;;;;;32.10;18.62;;;;;;;8.11;61.40;97375.33;1750176;80;25893;-82
2021/04/25 07:44:46;;;;;;;33.55;17.52;;;;;;;8.18;61.45;97375.71;1750057;80;26456;-82
2021/04/25 07:47:14;;;;;;;33.48;18.12;;;;;;;8.27;61.07;97363.77;1750224;80;25838;-82
2021/04/25 07:49:41;;;;;;;32.98;16.93;;;;;;;8.34;61.05;97368.37;1750206;80;27497;-82
2021/04/25 07:52:09;;;;;;;38.20;19.05;;;;;;;8.46;60.75;97370.30;1749968;80;25696;-82
2021/04/25 07:54:37;;;;;;;33.63;18.70;;;;;;;8.51;60.35;97367.86;1750133;80;25752;-82
2021/04/25 07:57:05;;;;;;;33.83;18.27;;;;;;;8.51;60.29;97371.06;1750095;80;25760;-82
2021/04/25 07:59:32;;;;;;;36.53;18.00;;;;;;;8.58;59.99;97366.53;1750138;80;25812;-82
2021/04/25 08:02:00;;;;;;;44.98;19.82;;;;;;;8.56;59.70;97375.34;1750131;80;27438;-82
2021/04/25 08:04:27;;;;;;;33.78;18.02;;;;;;;8.54;59.67;97374.70;1750239;80;25928;-82
2021/04/25 08:06:55;;;;;;;37.03;17.75;;;;;;;8.43;59.46;97367.20;1750173;80;25599;-82
2021/04/25 08:09:22;;;;;;;38.75;18.50;;;;;;;8.35;59.18;97368.17;1750228;80;25820;-82
2021/04/25 08:11:49;;;;;;;30.92;16.50;;;;;;;8.29;59.15;97360.37;1750312;80;25833;-82
2021/04/25 08:14:17;;;;;;;34.33;18.42;;;;;;;8.32;58.87;97360.53;1750377;80;28540;-82
2021/04/25 08:16:44;;;;;;;32.20;18.73;;;;;;;8.37;58.48;97355.87;1750292;80;25788;-82
2021/04/25 08:19:12;;;;;;;39.40;21.42;;;;;;;8.42;58.46;97360.16;1750357;80;25794;-81
2021/04/25 08:21:40;;;;;;;42.23;21.23;;;;;;;8.32;58.55;97355.14;1750395;80;25845;-81
2021/04/25 08:24:08;;;;;;;39.45;20.37;;;;;;;8.18;58.61;97356.89;1750298;80;26427;-82
2021/04/25 08:26:35;;;;;;;39.33;20.43;;;;;;;8.20;58.42;97352.66;1750237;80;27699;-82
2021/04/25 08:29:04;;;;;;;33.38;19.07;;;;;;;8.12;58.11;97356.31;1750222;80;25741;-82
2021/04/25 08:31:31;;;;;;;32.25;17.85;;;;;;;8.07;58.31;97356.61;1750302;80;25711;-82
2021/04/25 08:33:58;;;;;;;29.95;17.35;;;;;;;8.01;58.16;97360.06;1750444;80;25856;-82
2021/04/25 08:36:26;;;;;;;30.37;14.83;;;;;;;7.97;58.11;97364.99;1754631;80;25878;-83
2021/04/25 08:38:53;;;;;;;32.30;16.97;;;;;;;7.95;57.91;97353.63;1750188;80;27495;-82
2021/04/25 08:41:22;;;;;;;28.05;16.12;;;;;;;8.02;58.03;97354.50;1750109;80;26132;-82
2021/04/25 08:43:50;;;;;;;34.60;15.38;;;;;;;8.12;57.90;97357.66;1750238;80;25778;-82
2021/04/25 08:46:24;;;;;;;25.50;13.68;;;;;;;8.21;57.65;97348.95;1750157;80;26502;-82
2021/04/25 08:48:52;;;;;;;24.67;13.25;;;;;;;8.27;57.26;97358.39;1750587;80;25829;-81
2021/04/25 08:51:20;;;;;;;24.77;12.90;;;;;;;8.28;56.72;97358.70;1750243;80;27561;-82
2021/04/25 08:53:49;;;;;;;25.80;14.05;;;;;;;8.30;56.67;97356.66;1750212;80;25286;-82
2021/04/25 08:56:19;;;;;;;35.73;15.90;;;;;;;8.28;56.60;97353.33;1750246;80;25818;-81
2021/04/25 08:58:50;;;;;;;31.95;15.23;;;;;;;8.22;56.31;97355.45;1750293;80;25843;-81
2021/04/25 09:01:17;;;;;;;30.05;15.53;;;;;;;8.23;56.64;97353.08;1736131;80;25828;-81
2021/04/25 09:03:45;;;;;;;27.05;14.38;;;;;;;8.19;56.32;97349.14;1730966;81;28411;-81
2021/04/25 09:06:12;;;;;;;26.97;13.32;;;;;;;8.25;56.30;97344.30;1732428;81;25788;-82
2021/04/25 09:08:51;;;;;;;27.48;14.83;;;;;;;8.20;55.96;97348.12;1761357;81;25775;-82
2021/04/25 09:11:36;;;;;;;30.65;14.75;;;;;;;8.19;56.15;97351.00;1739981;80;25768;-82
2021/04/25 09:14:25;;;;;;;31.00;13.85;;;;;;;8.25;55.95;97346.99;1760955;81;26264;-81
2021/04/25 09:17:01;;;;;;;30.15;15.05;;;;;;;8.34;56.09;97349.54;1761379;80;27554;-82
2021/04/25 09:19:54;;;;;;;24.57;14.38;;;;;;;8.35;55.57;97348.00;1761277;81;25671;-81
2021/04/25 09:22:27;;;;;;;28.23;14.10;;;;;;;8.39;55.59;97347.93;1743149;81;25755;-82
2021/04/25 09:25:08;;;;;;;;;;;;;;;8.50;55.44;97347.87;1736811;81;25896;-82
2021/04/25 09:27:36;;;;;;;26.42;12.93;;;;;;;8.48;55.46;97345.89;1738219;81;25761;-81
2021/04/25 09:30:05;;;;;;;25.48;13.95;;;;;;;8.50;55.40;97342.50;1737295;81;27489;-81
2021/04/25 09:32:34;;;;;;;23.92;13.03;;;;;;;8.55;55.27;97344.92;1757981;81;25669;-82
2021/04/25 09:35:12;;;;;;;21.75;12.45;;;;;;;8.59;55.12;97349.36;1761280;80;25921;-82
2021/04/25 09:37:43;;;;;;;23.80;12.00;;;;;;;8.57;54.81;97343.38;1757833;81;25750;-81
2021/04/25 09:40:23;;;;;;;24.05;14.05;;;;;;;8.51;54.78;97347.68;1744775;81;25990;-82
2021/04/25 09:43:01;;;;;;;23.27;12.28;;;;;;;8.58;54.52;97343.66;1756989;81;27496;-82
2021/04/25 09:45:42;;;;;;;24.40;12.40;;;;;;;8.64;54.24;97345.57;1737761;81;25852;-82
2021/04/25 09:48:25;;;;;;;20.97;10.88;;;;;;;8.61;54.31;97341.92;1738885;81;25685;-82
2021/04/25 09:51:25;;;;;;;22.45;12.25;;;;;;;8.63;54.30;97350.12;1761219;81;25822;-82
2021/04/25 09:54:00;;;;;;;21.30;13.08;;;;;;;8.69;53.87;97344.47;1746490;81;25800;-82
2021/04/25 09:56:39;;;;;;;21.55;12.33;;;;;;;8.71;53.81;97339.69;1735617;81;27721;-82
2021/04/25 09:59:08;;;;;;;26.97;14.13;;;;;;;8.78;53.73;97335.69;1761272;79;25773;-81
2021/04/25 10:01:40;;;;;;;25.45;12.37;;;;;;;8.82;53.48;97343.14;1762624;80;25794;-82
2021/04/25 10:04:37;;;;;;;22.13;12.40;;;;;;;8.78;53.48;97340.56;1740149;81;26297;-82
2021/04/25 10:07:10;;;;;;;21.82;11.63;;;;;;;8.72;53.35;97341.34;1752916;80;25877;-81
2021/04/25 10:09:37;;;;;;;24.20;12.33;;;;;;;8.66;53.44;97335.44;1740119;81;27503;-81
2021/04/25 10:12:05;;;;;;;19.07;10.18;;;;;;;8.60;53.12;97342.95;1739891;81;25798;-82
2021/04/25 10:14:35;;;;;;;21.07;11.88;;;;;;;8.60;52.89;97341.61;1739935;81;25839;-81
2021/04/25 10:17:04;;;;;;;20.57;10.78;;;;;;;8.62;52.86;97340.38;1739873;81;25865;-81
2021/04/25 10:19:33;;;;;;;22.25;10.80;;;;;;;8.65;52.85;97341.84;1739985;81;25788;-82
2021/04/25 10:22:02;;;;;;;18.80;10.55;;;;;;;8.70;52.64;97340.72;1739823;81;27579;-81
2021/04/25 10:24:30;;;;;;;20.65;10.80;;;;;;;8.73;52.65;97336.80;1739784;81;25767;-82
2021/04/25 10:27:12;;;;;;;19.73;10.63;;;;;;;8.69;52.22;97336.39;1739895;81;25727;-82
2021/04/25 10:30:00;;;;;;;20.30;11.53;;;;;;;8.68;52.04;97333.38;1760933;80;25825;-80
2021/04/25 10:32:28;;;;;;;26.30;13.90;;;;;;;8.64;52.18;97336.16;1739425;81;25847;-80
2021/04/25 10:35:17;;;;;;;23.42;11.75;;;;;;;8.62;52.08;97334.17;1739807;81;27495;-79
2021/04/25 10:37:46;;;;;;;48.80;28.83;;;;;;;8.66;51.57;97334.92;1686660;84;25840;-79
2021/04/25 10:43:14;;;;;;;27.62;16.40;;;;;;;8.69;51.12;97336.91;1873092;76;25625;-81
2021/04/25 10:46:02;;;;;;;25.90;17.10;;;;;;;8.61;51.22;97347.30;1831485;77;25777;-81
2021/04/25 10:48:33;;;;;;;21.93;11.90;;;;;;;8.58;51.00;97338.28;1827211;77;27775;-79
2021/04/25 10:51:12;;;;;;;17.65;10.40;;;;;;;8.57;51.09;97343.38;1825155;77;25754;-80
2021/04/25 10:53:47;;;;;;;18.98;12.15;;;;;;;8.59;50.74;97341.29;1818906;77;25718;-81
2021/04/25 10:56:20;;;;;;;20.35;11.00;;;;;;;8.58;50.63;97340.45;1818875;77;25705;-81
2021/04/25 10:58:53;;;;;;;17.67;10.93;;;;;;;8.60;50.98;97341.09;1818984;77;25734;-81
2021/04/25 11:01:44;;;;;;;18.20;10.13;;;;;;;8.68;50.98;97338.77;1813146;77;28437;-81
2021/04/25 11:04:12;;;;;;;18.40;11.50;;;;;;;8.67;50.69;97338.45;1806824;77;25789;-81
2021/04/25 11:06:41;;;;;;;17.80;9.95;;;;;;;8.64;50.66;97341.02;1815511;77;25893;-81
2021/04/25 11:09:31;;;;;;;20.45;11.08;;;;;;;8.69;50.40;97335.05;1818940;77;25784;-81
2021/04/25 11:11:58;;;;;;;20.97;10.38;;;;;;;8.71;50.32;97339.69;1802955;77;25814;-82
2021/04/25 11:14:38;;;;;;;21.60;11.15;;;;;;;8.81;50.21;97338.81;1831245;77;27484;-81
2021/04/25 11:17:29;;;;;;;15.58;10.05;;;;;;;8.89;50.36;97337.80;1819977;77;25745;-81
2021/04/25 11:19:56;;;;;;;18.37;10.05;;;;;;;9.00;50.01;97339.38;1813394;77;25824;-80
2021/04/25 11:22:46;;;;;;;18.75;9.55;;;;;;;9.03;50.09;97336.30;1818814;77;25757;-81
2021/04/25 11:25:33;;;;;;;19.77;11.25;;;;;;;9.12;49.71;97332.05;1821308;77;25714;-81
2021/04/25 11:28:01;;;;;;;20.45;9.98;;;;;;;9.22;49.65;97329.80;1834171;77;27491;-81
2021/04/25 11:30:39;;;;;;;18.35;10.45;;;;;;;9.29;48.94;97322.57;1818749;77;25661;-81
2021/04/25 11:33:33;;;;;;;19.05;10.90;;;;;;;9.35;48.90;97324.42;1818544;77;26372;-81
2021/04/25 11:36:39;;;;;;;20.35;9.93;;;;;;;9.49;48.90;97315.33;1818780;77;26153;-81
2021/04/25 11:39:07;;;;;;;18.32;10.75;;;;;;;9.72;49.17;97311.70;1818805;77;25776;-80
2021/04/25 11:41:35;;;;;;;21.57;11.12;;;;;;;9.93;49.42;97316.54;1817205;77;27483;-81